Time;durP1;ratioP1;P1;durP2;ratioP2;P2;SDS_P1;SDS_P2;PMS_P1;PMS_P2;Temp;Humidity;BMP_temperature;BMP_pressure;BME280_temperature;BME280_humidity;BME280_pressure;Samples;Min_cycle;Max_cycle;Signal;HPM_P1;HPM_P2
2021/09/14 00:00:21;;;;;;;7.50;3.22;;;11.80;99.90;;;;;;5037651;28;20055;-76
2021/09/14 00:02:49;;;;;;;6.05;3.75;;;11.90;99.90;;;;;;5072946;28;20094;-76
2021/09/14 00:05:18;;;;;;;7.50;3.55;;;11.90;99.90;;;;;;5090137;28;20120;-76
2021/09/14 00:07:44;;;;;;;5.88;3.35;;;11.90;99.90;;;;;;5077755;28;20045;-76
2021/09/14 00:10:10;;;;;;;6.05;3.13;;;11.90;99.90;;;;;;5074433;28;20065;-76
2021/09/14 00:12:36;;;;;;;6.53;3.40;;;11.90;99.90;;;;;;5058523;28;20111;-76
2021/09/14 00:15:02;;;;;;;5.55;3.20;;;11.90;99.90;;;;;;5050407;28;20489;-76
2021/09/14 00:17:28;;;;;;;7.80;3.30;;;11.80;99.90;;;;;;5077528;28;20032;-75
2021/09/14 00:19:54;;;;;;;7.63;3.30;;;11.90;99.90;;;;;;5090173;28;20055;-75
2021/09/14 00:22:20;;;;;;;6.13;3.28;;;11.80;99.90;;;;;;5052012;28;20044;-76
2021/09/14 00:24:46;;;;;;;6.28;3.50;;;11.80;99.90;;;;;;5035374;28;20044;-77
2021/09/14 00:27:11;;;;;;;11.10;3.88;;;11.70;99.90;;;;;;5064482;28;20386;-76
2021/09/14 00:29:37;;;;;;;5.75;3.55;;;11.60;99.90;;;;;;5055120;28;20036;-76
2021/09/14 00:32:04;;;;;;;8.30;3.80;;;11.60;99.90;;;;;;5074321;28;20040;-76
2021/09/14 00:34:30;;;;;;;6.43;3.88;;;11.60;99.90;;;;;;5058523;28;20053;-76
2021/09/14 00:36:55;;;;;;;6.07;3.80;;;11.60;99.90;;;;;;5041117;28;20044;-76
2021/09/14 00:39:21;;;;;;;6.47;3.90;;;11.60;99.90;;;;;;5042065;28;20112;-76
2021/09/14 00:41:47;;;;;;;8.30;4.05;;;11.60;99.90;;;;;;5060331;28;20479;-76
2021/09/14 00:44:12;;;;;;;7.55;4.15;;;11.80;99.90;;;;;;5057935;28;20044;-75
2021/09/14 00:46:38;;;;;;;6.75;3.35;;;11.70;99.90;;;;;;5045239;28;20122;-76
2021/09/14 00:49:04;;;;;;;6.43;4.22;;;11.70;99.90;;;;;;5040576;28;20076;-76
2021/09/14 00:51:31;;;;;;;6.80;4.03;;;11.70;99.90;;;;;;5045383;28;20054;-75
2021/09/14 00:53:56;;;;;;;10.50;5.05;;;11.70;99.90;;;;;;5063294;28;20604;-76
2021/09/14 00:56:24;;;;;;;9.65;4.53;;;11.80;99.90;;;;;;5028228;28;20039;-76
2021/09/14 00:58:49;;;;;;;10.50;4.25;;;11.90;99.90;;;;;;5031270;28;20093;-76
2021/09/14 01:01:15;;;;;;;8.02;4.32;;;11.90;99.90;;;;;;5052432;28;20036;-76
2021/09/14 01:03:41;;;;;;;6.95;3.90;;;12.00;99.90;;;;;;5028139;28;20045;-76
2021/09/14 01:06:07;;;;;;;6.38;4.25;;;12.00;99.90;;;;;;5034166;28;20047;-77
2021/09/14 01:08:35;;;;;;;7.50;4.40;;;12.00;99.90;;;;;;5043102;28;20399;-77
2021/09/14 01:11:02;;;;;;;7.82;4.30;;;12.00;99.90;;;;;;5031866;28;20640;-75
2021/09/14 01:13:28;;;;;;;6.75;4.72;;;12.00;99.90;;;;;;5061088;28;20067;-75
2021/09/14 01:15:54;;;;;;;6.15;4.32;;;12.00;99.90;;;;;;5063423;28;20044;-76
2021/09/14 01:18:19;;;;;;;7.03;3.92;;;12.00;99.90;;;;;;5010645;28;20067;-75
2021/09/14 01:20:45;;;;;;;7.53;4.65;;;12.00;99.90;;;;;;5062725;28;20119;-75
2021/09/14 01:23:12;;;;;;;8.13;5.07;;;12.10;99.90;;;;;;5047647;28;20490;-76
2021/09/14 01:25:37;;;;;;;12.52;5.15;;;12.10;99.90;;;;;;5032734;28;20068;-76
2021/09/14 01:28:05;;;;;;;9.02;5.07;;;12.10;99.90;;;;;;5025102;28;20079;-76
2021/09/14 01:30:32;;;;;;;10.35;5.22;;;12.10;99.90;;;;;;5058522;28;20052;-76
2021/09/14 01:32:58;;;;;;;9.05;5.10;;;12.20;99.90;;;;;;5041774;28;20119;-76
2021/09/14 01:35:26;;;;;;;10.50;4.80;;;12.10;99.90;;;;;;5069914;28;20071;-76
2021/09/14 01:37:53;;;;;;;6.60;4.70;;;12.20;99.90;;;;;;5079849;28;20167;-76
2021/09/14 01:40:19;;;;;;;10.27;5.65;;;12.20;99.90;;;;;;5084576;28;20052;-77
2021/09/14 01:42:45;;;;;;;7.90;5.50;;;12.20;99.90;;;;;;5081839;28;20096;-76
2021/09/14 01:45:12;;;;;;;7.82;5.30;;;12.20;99.90;;;;;;5057102;28;20126;-76
2021/09/14 01:47:39;;;;;;;9.02;4.57;;;12.20;99.90;;;;;;5057848;28;20523;-76
2021/09/14 01:50:06;;;;;;;8.52;4.93;;;12.20;99.90;;;;;;5079364;28;20052;-76
2021/09/14 01:52:33;;;;;;;9.38;5.38;;;12.20;99.90;;;;;;5075779;28;20044;-76
2021/09/14 01:55:08;;;;;;;8.07;5.35;;;12.20;99.90;;;;;;5053500;28;20043;-75
2021/09/14 01:57:37;;;;;;;9.63;5.90;;;12.20;99.90;;;;;;5068570;28;20041;-76
2021/09/14 02:00:07;;;;;;;7.20;5.30;;;12.20;99.90;;;;;;5064777;28;20044;-76
2021/09/14 02:03:19;;;;;;;8.07;4.60;;;12.20;99.90;;;;;;5075953;28;20402;-76
2021/09/14 02:59:38;;;;;;;9.50;5.78;;;11.60;99.90;;;;;;5075630;28;20322;-77
2021/09/14 03:02:05;;;;;;;11.10;7.05;;;11.50;99.90;;;;;;5085143;28;20048;-77
2021/09/14 03:04:32;;;;;;;12.93;7.32;;;11.50;99.90;;;;;;5081187;28;20040;-77
2021/09/14 03:06:58;;;;;;;10.68;6.88;;;11.50;99.90;;;;;;5081931;28;20101;-76
2021/09/14 03:09:23;;;;;;;11.35;7.50;;;11.50;99.90;;;;;;5083445;28;20342;-76
2021/09/14 03:11:49;;;;;;;13.52;7.57;;;11.50;99.90;;;;;;5078737;28;20691;-77
2021/09/14 03:14:15;;;;;;;11.48;8.02;;;11.50;99.90;;;;;;5072553;28;20042;-77
2021/09/14 03:16:41;;;;;;;12.52;7.95;;;11.50;99.90;;;;;;5050591;28;20047;-76
2021/09/14 03:19:06;;;;;;;11.40;7.30;;;11.50;99.90;;;;;;5079957;28;20144;-77
2021/09/14 03:21:32;;;;;;;15.02;8.35;;;11.40;99.90;;;;;;5058341;28;20052;-77
2021/09/14 03:23:58;;;;;;;13.00;8.65;;;11.40;99.90;;;;;;5064543;28;20116;-77
2021/09/14 03:26:24;;;;;;;11.50;7.78;;;11.40;99.90;;;;;;5059743;28;20134;-76
2021/09/14 03:28:50;;;;;;;13.02;8.32;;;11.40;99.90;;;;;;5084108;28;20048;-77
2021/09/14 03:31:16;;;;;;;13.13;8.77;;;11.40;99.90;;;;;;5068700;28;20386;-77
2021/09/14 03:33:47;;;;;;;16.42;9.35;;;11.40;99.90;;;;;;5057505;27;22732;-77
2021/09/14 03:36:16;;;;;;;16.48;8.90;;;11.40;99.90;;;;;;5095393;28;20490;-76
2021/09/14 03:38:42;;;;;;;13.38;8.98;;;11.40;99.90;;;;;;5066557;28;20055;-78
2021/09/14 03:41:07;;;;;;;17.13;9.93;;;11.30;99.90;;;;;;5077625;27;20554;-77
2021/09/14 03:43:36;;;;;;;14.57;9.40;;;11.30;99.90;;;;;;5065004;27;20065;-76
2021/09/14 03:46:02;;;;;;;12.98;8.95;;;11.30;99.90;;;;;;5076138;27;20043;-76
2021/09/14 03:48:28;;;;;;;15.45;9.50;;;11.30;99.90;;;;;;5072481;27;20046;-76
2021/09/14 03:50:54;;;;;;;13.15;9.35;;;11.40;99.90;;;;;;5086629;27;20289;-76
2021/09/14 03:53:20;;;;;;;15.68;9.82;;;11.30;99.90;;;;;;5060638;27;20532;-77
2021/09/14 03:55:45;;;;;;;16.60;10.13;;;11.30;99.90;;;;;;5055627;28;20730;-77
2021/09/14 03:58:11;;;;;;;17.17;10.32;;;11.30;99.90;;;;;;5068710;28;20039;-77
2021/09/14 04:00:37;;;;;;;17.42;10.73;;;11.30;99.90;;;;;;5052012;28;20070;-76
2021/09/14 04:03:26;;;;;;;23.00;11.98;;;11.30;99.90;;;;;;5053471;28;20144;-77
2021/09/14 04:10:44;;;;;;;18.17;11.40;;;11.30;99.90;;;;;;5090035;27;20063;-76
2021/09/14 04:13:11;;;;;;;17.05;11.23;;;11.30;99.90;;;;;;5066297;28;20070;-76
2021/09/14 04:15:37;;;;;;;18.17;11.35;;;11.30;99.90;;;;;;5059881;28;20051;-76
2021/09/14 04:18:06;;;;;;;20.42;12.32;;;11.30;99.90;;;;;;5069821;28;20089;-76
2021/09/14 04:20:32;;;;;;;19.65;12.00;;;11.30;99.90;;;;;;5089316;28;20067;-76
2021/09/14 04:22:59;;;;;;;19.92;12.57;;;11.30;99.90;;;;;;5073640;28;20040;-76
2021/09/14 04:25:25;;;;;;;21.80;12.50;;;11.20;99.90;;;;;;5067096;28;20051;-76
2021/09/14 04:27:50;;;;;;;17.38;11.73;;;11.30;99.90;;;;;;5053618;28;20042;-76
2021/09/14 04:30:16;;;;;;;16.02;12.20;;;11.30;99.90;;;;;;5062811;28;20172;-77
2021/09/14 04:32:42;;;;;;;24.50;13.30;;;11.30;99.90;;;;;;5071647;27;20043;-77
2021/09/14 04:35:09;;;;;;;19.23;13.32;;;11.30;99.90;;;;;;5066679;28;20048;-77
2021/09/14 04:37:38;;;;;;;21.63;13.55;;;11.30;99.90;;;;;;5070730;28;20060;-76
2021/09/14 04:40:07;;;;;;;24.10;12.82;;;11.30;99.90;;;;;;5052763;28;20047;-76
2021/09/14 04:42:36;;;;;;;18.25;13.73;;;11.30;99.90;;;;;;5074299;28;20047;-76
2021/09/14 04:45:02;;;;;;;19.55;13.80;;;11.30;99.90;;;;;;5087556;28;20078;-76
2021/09/14 04:47:28;;;;;;;17.92;13.65;;;11.30;99.90;;;;;;5068756;28;20090;-76
2021/09/14 04:49:53;;;;;;;21.58;13.77;;;11.30;99.90;;;;;;5081226;28;20217;-77
2021/09/14 04:52:19;;;;;;;18.98;13.23;;;11.30;99.90;;;;;;5070646;28;20050;-76
2021/09/14 04:54:45;;;;;;;21.55;14.05;;;11.30;99.90;;;;;;5037445;28;20083;-76
2021/09/14 04:57:11;;;;;;;21.00;14.55;;;11.30;99.90;;;;;;5077584;28;20094;-75
2021/09/14 04:59:36;;;;;;;19.70;13.60;;;11.30;99.90;;;;;;5052615;28;20051;-75
2021/09/14 05:02:02;;;;;;;20.40;14.00;;;11.30;99.90;;;;;;5094342;28;21148;-75
2021/09/14 05:04:28;;;;;;;22.17;15.07;;;11.30;99.90;;;;;;5056268;28;20043;-76
2021/09/14 05:06:54;;;;;;;24.50;15.10;;;11.30;99.90;;;;;;5052241;28;20051;-76
2021/09/14 05:09:20;;;;;;;22.63;14.23;;;11.30;99.90;;;;;;5071451;28;20052;-76
2021/09/14 05:11:45;;;;;;;21.00;14.77;;;11.30;99.90;;;;;;5065820;28;20044;-76
2021/09/14 05:14:11;;;;;;;19.73;14.73;;;11.30;99.90;;;;;;5033452;28;20079;-76
2021/09/14 05:16:37;;;;;;;20.77;14.60;;;11.30;99.90;;;;;;5070031;28;20929;-77
2021/09/14 05:19:08;;;;;;;22.77;15.50;;;11.30;99.90;;;;;;5061286;28;20048;-76
2021/09/14 05:21:40;;;;;;;23.10;14.57;;;11.30;99.90;;;;;;5082192;28;20041;-76
2021/09/14 05:24:05;;;;;;;22.75;15.00;;;11.30;99.90;;;;;;5080696;28;20654;-77
2021/09/14 05:26:31;;;;;;;23.13;14.32;;;11.30;99.90;;;;;;5046349;28;20040;-76
2021/09/14 05:28:57;;;;;;;27.00;15.23;;;11.30;99.90;;;;;;5049107;28;20104;-77
2021/09/14 05:31:23;;;;;;;23.38;14.02;;;11.30;99.90;;;;;;5072007;28;20433;-76
2021/09/14 05:33:48;;;;;;;24.33;14.88;;;11.30;99.90;;;;;;5059371;27;20509;-76
2021/09/14 05:36:14;;;;;;;24.20;14.52;;;11.30;99.90;;;;;;5065269;28;20079;-76
2021/09/14 05:38:42;;;;;;;25.02;15.63;;;11.40;99.90;;;;;;5083505;27;20384;-76
2021/09/14 05:41:07;;;;;;;22.52;15.00;;;11.40;99.90;;;;;;5092944;28;20096;-77
2021/09/14 05:43:34;;;;;;;22.80;15.45;;;11.40;99.90;;;;;;5090850;27;20051;-76
2021/09/14 05:46:00;;;;;;;22.90;15.25;;;11.50;99.90;;;;;;5064289;27;20043;-77
2021/09/14 05:48:25;;;;;;;21.83;14.48;;;11.50;99.90;;;;;;5038363;28;20043;-77
2021/09/14 05:50:52;;;;;;;23.40;15.40;;;11.50;99.90;;;;;;5063740;28;20127;-76
2021/09/14 05:53:18;;;;;;;22.83;14.98;;;11.60;99.90;;;;;;5074908;28;20511;-76
2021/09/14 05:55:45;;;;;;;23.65;15.82;;;11.60;99.90;;;;;;5046213;28;20108;-77
2021/09/14 05:58:11;;;;;;;23.63;15.95;;;11.60;99.90;;;;;;5069892;28;20043;-77
2021/09/14 06:00:40;;;;;;;21.42;14.73;;;11.70;99.90;;;;;;5061103;28;20469;-77
2021/09/14 06:03:06;;;;;;;25.27;15.55;;;11.70;99.90;;;;;;5076333;28;20039;-77
2021/09/14 06:05:33;;;;;;;24.13;14.88;;;11.70;99.90;;;;;;5069577;28;20050;-76
2021/09/14 06:07:58;;;;;;;22.60;14.68;;;11.70;99.90;;;;;;5078467;28;20104;-77
2021/09/14 06:10:24;;;;;;;23.42;15.60;;;11.80;99.90;;;;;;5085063;28;20047;-77
2021/09/14 06:12:50;;;;;;;22.50;15.55;;;11.90;99.90;;;;;;5075211;28;20078;-77
2021/09/14 06:15:16;;;;;;;23.38;15.10;;;11.90;99.90;;;;;;5050249;28;20042;-76
2021/09/14 06:17:42;;;;;;;22.67;14.80;;;11.90;99.90;;;;;;5064621;28;20077;-76
2021/09/14 06:20:09;;;;;;;21.77;15.10;;;12.00;99.90;;;;;;5071610;28;20047;-76
2021/09/14 06:22:35;;;;;;;23.35;15.75;;;12.00;99.90;;;;;;5071639;28;20039;-77
2021/09/14 06:25:01;;;;;;;22.58;14.73;;;12.10;99.90;;;;;;5091223;28;20040;-76
2021/09/14 06:27:26;;;;;;;22.40;15.50;;;12.10;99.90;;;;;;5067605;28;20039;-77
2021/09/14 06:29:52;;;;;;;20.48;14.32;;;12.20;99.90;;;;;;5058790;28;20808;-77
2021/09/14 06:32:18;;;;;;;24.52;15.32;;;12.30;99.90;;;;;;5067785;27;20394;-77
2021/09/14 06:34:44;;;;;;;21.65;14.95;;;12.30;99.90;;;;;;5080101;28;20434;-76
2021/09/14 06:37:10;;;;;;;20.08;15.13;;;12.40;99.90;;;;;;5062797;28;20056;-77
2021/09/14 06:39:36;;;;;;;21.45;15.27;;;12.40;99.90;;;;;;5043380;28;20096;-77
2021/09/14 06:42:03;;;;;;;26.58;15.23;;;12.50;99.90;;;;;;5065129;28;20072;-77
2021/09/14 06:44:30;;;;;;;20.13;14.57;;;12.50;99.90;;;;;;5068574;28;20044;-77
2021/09/14 06:46:56;;;;;;;22.83;15.20;;;12.60;99.90;;;;;;5060830;28;20047;-77
2021/09/14 06:49:22;;;;;;;21.05;15.00;;;12.70;99.90;;;;;;5063614;28;20433;-78
2021/09/14 06:51:48;;;;;;;20.55;14.65;;;12.80;99.90;;;;;;5084048;28;20139;-77
2021/09/14 06:54:14;;;;;;;23.67;15.48;;;12.80;99.90;;;;;;5030063;28;20131;-77
2021/09/14 06:56:40;;;;;;;21.92;14.10;;;12.90;99.90;;;;;;5075605;28;20636;-77
2021/09/14 06:59:06;;;;;;;22.48;14.23;;;13.00;99.90;;;;;;5076648;28;20049;-77
2021/09/14 07:01:32;;;;;;;20.13;13.80;;;13.10;99.90;;;;;;5055074;28;20044;-77
2021/09/14 07:03:57;;;;;;;19.00;13.73;;;13.20;99.90;;;;;;5053801;28;20048;-76
2021/09/14 07:06:23;;;;;;;22.15;13.82;;;13.20;99.90;;;;;;5082713;28;20101;-76
2021/09/14 07:08:49;;;;;;;19.75;13.73;;;13.30;99.90;;;;;;5063000;28;20052;-77
2021/09/14 07:11:16;;;;;;;22.35;14.27;;;13.50;99.90;;;;;;5079903;28;20044;-77
2021/09/14 07:13:42;;;;;;;23.20;14.23;;;13.60;99.90;;;;;;5058083;28;20063;-77
2021/09/14 07:16:08;;;;;;;17.95;13.25;;;13.70;99.90;;;;;;5081005;28;20032;-77
2021/09/14 07:18:38;;;;;;;22.23;14.25;;;13.90;99.90;;;;;;5067979;28;20406;-77
2021/09/14 07:21:07;;;;;;;20.60;13.88;;;14.00;99.90;;;;;;5063704;28;20040;-77
2021/09/14 07:23:34;;;;;;;18.47;12.60;;;14.10;99.90;;;;;;5051069;28;20111;-76
2021/09/14 07:26:00;;;;;;;19.83;12.88;;;14.20;99.90;;;;;;5061931;28;20548;-76
2021/09/14 07:28:29;;;;;;;20.15;13.15;;;14.40;99.90;;;;;;5076016;28;20105;-77
2021/09/14 07:30:55;;;;;;;17.05;12.40;;;14.50;99.90;;;;;;5081827;28;20568;-76
2021/09/14 07:33:24;;;;;;;18.50;13.20;;;14.60;99.90;;;;;;5043867;28;20043;-77
2021/09/14 07:35:50;;;;;;;19.00;12.90;;;14.80;99.90;;;;;;5050614;28;20116;-76
2021/09/14 07:38:16;;;;;;;17.60;11.68;;;14.90;99.90;;;;;;5054141;28;20044;-75
2021/09/14 07:40:45;;;;;;;19.42;12.27;;;15.00;99.90;;;;;;5046841;28;20124;-75
2021/09/14 07:43:11;;;;;;;17.13;10.95;;;15.20;99.90;;;;;;5072271;28;20051;-76
2021/09/14 07:45:36;;;;;;;13.50;10.80;;;15.40;99.90;;;;;;5064512;28;20468;-77
2021/09/14 07:48:05;;;;;;;15.60;10.88;;;15.50;99.90;;;;;;5062827;28;20048;-76
2021/09/14 07:50:31;;;;;;;17.33;10.73;;;15.70;99.90;;;;;;5075233;28;20047;-76
2021/09/14 07:52:57;;;;;;;17.05;10.68;;;15.90;99.90;;;;;;5030265;28;20040;-76
2021/09/14 07:55:23;;;;;;;14.30;11.02;;;16.10;99.90;;;;;;5037762;28;20603;-76
2021/09/14 07:57:49;;;;;;;15.57;10.65;;;16.20;99.90;;;;;;5075760;28;20084;-77
2021/09/14 08:00:15;;;;;;;14.68;10.50;;;16.40;99.90;;;;;;5032315;28;20040;-76
2021/09/14 08:02:41;;;;;;;14.90;9.80;;;16.50;99.90;;;;;;5074538;28;20040;-77
2021/09/14 08:05:07;;;;;;;16.88;10.82;;;16.60;99.90;;;;;;5076513;28;20105;-75
2021/09/14 08:07:36;;;;;;;17.08;10.13;;;16.70;99.90;;;;;;5059874;28;20487;-75
2021/09/14 08:10:02;;;;;;;14.70;10.18;;;16.90;99.90;;;;;;5042158;28;20099;-75
2021/09/14 08:12:28;;;;;;;15.70;10.90;;;16.90;99.90;;;;;;5079402;28;20479;-75
2021/09/14 08:14:54;;;;;;;14.48;10.50;;;16.80;99.90;;;;;;5045193;28;20048;-76
2021/09/14 08:17:20;;;;;;;13.95;9.98;;;16.80;99.90;;;;;;5058061;28;20040;-75
2021/09/14 08:19:49;;;;;;;13.95;9.98;;;16.90;99.90;;;;;;5071064;28;20044;-75
2021/09/14 08:22:15;;;;;;;14.93;9.40;;;17.00;99.90;;;;;;5077802;28;20097;-75
2021/09/14 08:24:41;;;;;;;13.45;9.13;;;17.10;99.90;;;;;;5075836;28;20514;-75
2021/09/14 08:27:07;;;;;;;13.15;9.80;;;17.10;99.90;;;;;;5053943;28;20480;-75
2021/09/14 08:29:32;;;;;;;12.70;8.88;;;17.20;99.90;;;;;;5071066;28;20043;-76
2021/09/14 08:31:58;;;;;;;15.07;9.18;;;17.30;99.90;;;;;;5043742;28;20040;-76
2021/09/14 08:34:24;;;;;;;11.82;8.95;;;17.40;99.90;;;;;;5062973;28;20048;-77
2021/09/14 08:36:50;;;;;;;12.48;9.23;;;17.50;99.90;;;;;;5046186;28;20083;-76
2021/09/14 08:39:16;;;;;;;14.32;9.52;;;17.60;99.90;;;;;;5059441;28;20086;-76
2021/09/14 08:41:45;;;;;;;15.63;9.10;;;17.70;99.90;;;;;;5067024;28;20060;-76
2021/09/14 08:44:11;;;;;;;11.43;9.07;;;17.80;99.90;;;;;;5077199;28;20258;-77
2021/09/14 08:46:43;;;;;;;11.90;9.50;;;18.00;99.90;;;;;;5083275;28;20439;-75
2021/09/14 08:49:11;;;;;;;15.40;9.60;;;18.10;99.90;;;;;;5063185;28;20044;-76
2021/09/14 08:51:37;;;;;;;13.50;9.20;;;18.10;99.90;;;;;;5079486;28;20048;-77
2021/09/14 08:54:09;;;;;;;11.05;8.18;;;18.20;99.90;;;;;;5061951;28;20097;-76
2021/09/14 08:56:35;;;;;;;12.23;9.40;;;18.30;99.90;;;;;;5069856;28;20079;-76
2021/09/14 08:59:06;;;;;;;12.38;8.98;;;18.40;99.90;;;;;;5044521;28;20545;-75
2021/09/14 09:01:32;;;;;;;11.82;9.48;;;18.70;99.90;;;;;;5074001;28;20290;-76
2021/09/14 09:04:11;;;;;;;13.07;9.35;;;18.70;99.90;;;;;;5081972;28;20042;-76
2021/09/14 09:06:38;;;;;;;12.85;9.35;;;18.70;99.90;;;;;;5033738;28;20051;-76
2021/09/14 09:09:13;;;;;;;9.98;8.82;;;18.80;99.90;;;;;;5077720;28;20051;-75
2021/09/14 09:11:50;;;;;;;11.23;8.85;;;18.90;99.90;;;;;;5077214;28;20028;-76
2021/09/14 09:14:16;;;;;;;11.57;8.73;;;19.00;99.90;;;;;;5075546;28;20368;-76
2021/09/14 09:16:43;;;;;;;9.77;7.95;;;19.10;99.90;;;;;;5063548;28;20110;-76
2021/09/14 09:19:08;;;;;;;10.95;8.60;;;19.30;99.90;;;;;;5068799;28;20048;-76
2021/09/14 09:21:39;;;;;;;11.43;8.65;;;19.40;99.90;;;;;;5065108;28;20046;-76
2021/09/14 09:24:12;;;;;;;12.55;8.30;;;19.40;99.50;;;;;;5085255;28;20372;-76
2021/09/14 09:26:40;;;;;;;10.93;7.70;;;19.40;99.20;;;;;;5074054;28;20040;-75
2021/09/14 09:29:08;;;;;;;10.00;8.23;;;19.40;98.60;;;;;;5070155;28;20047;-75
2021/09/14 09:31:42;;;;;;;10.98;7.70;;;19.30;98.60;;;;;;5079133;28;20135;-75
2021/09/14 09:34:10;;;;;;;9.80;6.50;;;19.30;98.90;;;;;;5078000;28;20056;-75
2021/09/14 09:36:40;;;;;;;9.27;6.97;;;19.40;99.60;;;;;;5055086;28;20194;-75
2021/09/14 09:39:08;;;;;;;11.68;7.65;;;19.40;99.90;;;;;;5078612;28;20089;-75
2021/09/14 09:41:40;;;;;;;9.25;7.78;;;19.40;99.90;;;;;;5086242;28;20193;-75
2021/09/14 09:44:08;;;;;;;9.60;7.47;;;19.40;99.70;;;;;;5078053;28;20068;-75
2021/09/14 09:46:37;;;;;;;11.23;7.97;;;19.40;99.10;;;;;;5078919;28;20521;-75
2021/09/14 09:49:08;;;;;;;11.05;7.07;;;19.30;99.00;;;;;;5056624;28;20423;-75
2021/09/14 09:51:36;;;;;;;9.60;7.40;;;19.40;98.90;;;;;;5061243;28;20051;-76
2021/09/14 09:54:03;;;;;;;9.35;6.60;;;19.30;98.00;;;;;;5080213;28;20136;-76
2021/09/14 09:56:30;;;;;;;12.50;8.32;;;19.20;98.80;;;;;;5087536;28;20044;-76
2021/09/14 09:58:58;;;;;;;10.85;7.68;;;19.30;99.30;;;;;;5027713;28;20040;-75
2021/09/14 10:01:25;;;;;;;11.38;8.38;;;19.40;99.30;;;;;;5082401;28;20055;-75
2021/09/14 10:04:04;;;;;;;10.07;7.15;;;19.50;99.10;;;;;;5073793;28;20047;-76
2021/09/14 10:06:32;;;;;;;10.40;7.63;;;19.70;99.40;;;;;;5063606;28;20074;-75
2021/09/14 10:08:58;;;;;;;10.55;7.78;;;19.90;99.20;;;;;;5080975;28;20390;-76
2021/09/14 10:11:30;;;;;;;9.32;7.85;;;20.10;98.40;;;;;;5084500;28;20048;-76
2021/09/14 10:14:23;;;;;;;9.80;6.65;;;20.20;98.10;;;;;;5084942;28;20040;-75
2021/09/14 10:16:49;;;;;;;10.45;8.38;;;20.40;97.10;;;;;;5079636;28;20536;-75
2021/09/14 10:19:17;;;;;;;9.52;7.32;;;20.50;96.70;;;;;;5063445;28;20324;-76
2021/09/14 10:21:59;;;;;;;11.50;7.88;;;20.60;96.60;;;;;;5060152;28;20486;-76
2021/09/14 10:24:25;;;;;;;10.52;6.72;;;20.60;96.30;;;;;;5088544;28;20758;-76
2021/09/14 10:27:07;;;;;;;9.43;7.07;;;20.80;95.50;;;;;;5054825;28;20091;-76
2021/09/14 10:29:37;;;;;;;8.23;6.45;;;21.00;95.00;;;;;;5085703;28;20040;-76
2021/09/14 10:32:06;;;;;;;9.50;6.97;;;21.10;95.30;;;;;;5063299;28;20082;-76
2021/09/14 10:34:39;;;;;;;8.73;5.95;;;21.20;94.60;;;;;;5068953;28;20593;-76
2021/09/14 10:37:10;;;;;;;7.80;6.25;;;21.30;94.60;;;;;;5069264;28;20048;-76
2021/09/14 10:39:39;;;;;;;9.07;6.68;;;21.30;95.00;;;;;;5081186;28;20129;-76
2021/09/14 10:42:34;;;;;;;9.20;6.28;;;21.50;94.70;;;;;;5083255;28;20051;-76
2021/09/14 10:45:10;;;;;;;9.35;6.32;;;21.60;93.80;;;;;;5075749;28;20398;-76
2021/09/14 10:47:38;;;;;;;8.00;6.15;;;21.70;93.90;;;;;;5086284;28;20039;-76
2021/09/14 10:50:09;;;;;;;9.25;6.60;;;21.80;93.80;;;;;;5094412;28;20027;-76
2021/09/14 10:52:43;;;;;;;8.13;6.00;;;21.90;93.00;;;;;;5061103;28;20076;-76
2021/09/14 10:55:17;;;;;;;9.25;6.90;;;21.90;92.50;;;;;;5086235;28;20036;-77
2021/09/14 10:57:51;;;;;;;8.07;6.32;;;22.00;92.40;;;;;;5081958;28;20153;-77
2021/09/14 11:00:18;;;;;;;7.60;6.50;;;22.10;92.60;;;;;;5069351;28;20051;-76
2021/09/14 11:03:01;;;;;;;8.38;6.40;;;22.20;92.90;;;;;;5042701;28;20036;-76
2021/09/14 11:05:28;;;;;;;9.43;6.88;;;22.30;92.50;;;;;;5082076;28;20048;-76
2021/09/14 11:08:08;;;;;;;11.20;6.38;;;22.20;91.80;;;;;;5078184;28;20051;-76
2021/09/14 11:10:36;;;;;;;9.63;7.43;;;22.20;92.10;;;;;;5060483;28;20044;-76
2021/09/14 11:13:03;;;;;;;7.93;5.97;;;22.30;91.80;;;;;;5076399;28;20036;-76
2021/09/14 11:15:29;;;;;;;9.05;5.68;;;22.30;91.90;;;;;;5048035;28;20042;-76
2021/09/14 11:17:55;;;;;;;8.93;6.97;;;22.40;92.10;;;;;;5076575;28;20040;-76
2021/09/14 11:20:25;;;;;;;10.02;7.18;;;22.50;92.00;;;;;;5050062;28;20051;-76
2021/09/14 11:22:55;;;;;;;7.78;6.68;;;22.60;91.80;;;;;;5063489;28;20058;-76
2021/09/14 11:25:27;;;;;;;7.30;5.82;;;22.70;91.20;;;;;;5048870;28;20040;-76
2021/09/14 11:28:02;;;;;;;9.00;5.93;;;22.60;91.20;;;;;;5062214;28;20138;-76
2021/09/14 11:30:29;;;;;;;7.72;5.63;;;22.70;90.80;;;;;;5068839;28;20044;-76
2021/09/14 11:32:56;;;;;;;7.68;5.95;;;22.70;91.30;;;;;;5056414;28;20042;-76
2021/09/14 11:35:23;;;;;;;8.43;5.70;;;22.80;91.30;;;;;;5076360;28;20089;-77
2021/09/14 11:38:00;;;;;;;6.45;5.63;;;22.80;90.10;;;;;;5082231;28;20523;-76
2021/09/14 11:40:27;;;;;;;8.63;5.65;;;22.80;90.90;;;;;;5061382;28;20264;-76
2021/09/14 11:42:57;;;;;;;9.55;6.72;;;22.90;91.10;;;;;;5067195;27;20053;-76
2021/09/14 11:45:26;;;;;;;8.40;5.90;;;22.90;90.30;;;;;;5074632;28;20082;-76
2021/09/14 11:47:53;;;;;;;12.55;6.18;;;23.00;90.60;;;;;;5057221;28;20312;-77
2021/09/14 11:50:36;;;;;;;10.10;6.93;;;23.00;90.50;;;;;;5086155;28;20379;-76
2021/09/14 11:53:21;;;;;;;7.88;5.68;;;23.10;90.00;;;;;;5083265;28;20032;-76
2021/09/14 11:55:50;;;;;;;8.20;6.45;;;23.10;90.30;;;;;;5073710;27;20185;-75
2021/09/14 11:58:29;;;;;;;8.57;6.78;;;23.20;89.00;;;;;;5084223;28;20047;-75
2021/09/14 12:00:59;;;;;;;7.50;6.13;;;23.20;89.10;;;;;;5062724;28;20506;-76
2021/09/14 12:03:37;;;;;;;8.38;6.70;;;23.20;89.60;;;;;;5075310;28;20051;-76
2021/09/14 12:06:06;;;;;;;9.93;6.28;;;23.30;90.10;;;;;;5069869;28;20410;-76
2021/09/14 12:08:35;;;;;;;7.90;6.88;;;23.40;90.10;;;;;;5066317;27;20047;-77
2021/09/14 12:11:06;;;;;;;10.10;7.25;;;23.50;89.60;;;;;;5063435;28;20097;-76
2021/09/14 12:13:55;;;;;;;8.38;6.85;;;23.50;89.60;;;;;;5063025;28;20043;-76
2021/09/14 12:16:29;;;;;;;7.78;6.97;;;23.60;88.80;;;;;;5085050;28;20180;-76
2021/09/14 12:18:56;;;;;;;8.80;6.55;;;23.60;87.70;;;;;;5072106;28;20079;-76
2021/09/14 12:21:23;;;;;;;8.38;6.95;;;23.60;87.60;;;;;;5061506;28;20470;-76
2021/09/14 12:23:49;;;;;;;9.27;6.38;;;23.70;87.80;;;;;;5071268;28;20083;-75
2021/09/14 12:26:18;;;;;;;10.23;6.90;;;23.70;88.40;;;;;;5068603;28;20039;-75
2021/09/14 12:28:44;;;;;;;8.57;6.50;;;23.70;87.70;;;;;;5087956;28;20455;-75
2021/09/14 12:31:09;;;;;;;8.80;6.43;;;23.60;87.50;;;;;;5091715;28;20076;-76
2021/09/14 12:33:35;;;;;;;8.45;7.00;;;23.60;87.20;;;;;;5096170;28;20367;-75
2021/09/14 12:36:01;;;;;;;10.38;7.10;;;23.60;86.70;;;;;;5076155;28;20051;-75
2021/09/14 12:38:27;;;;;;;8.75;6.95;;;23.60;86.50;;;;;;5082400;28;20351;-75
2021/09/14 12:40:53;;;;;;;10.80;7.43;;;23.60;86.70;;;;;;5084593;28;20134;-75
2021/09/14 12:43:18;;;;;;;8.55;7.75;;;23.60;86.10;;;;;;5095433;28;20134;-76
2021/09/14 12:45:44;;;;;;;7.68;6.93;;;23.60;85.20;;;;;;5072173;28;20058;-76
2021/09/14 12:48:10;;;;;;;8.30;7.50;;;23.60;85.50;;;;;;5053648;28;20473;-75
2021/09/14 12:50:36;;;;;;;7.70;6.90;;;23.60;86.10;;;;;;5044846;28;20043;-76
2021/09/14 12:53:04;;;;;;;8.90;7.07;;;23.60;86.60;;;;;;5064746;28;20109;-75
2021/09/14 12:55:34;;;;;;;8.25;6.43;;;23.80;86.70;;;;;;5069587;28;20110;-75
2021/09/14 12:58:01;;;;;;;8.25;6.85;;;23.80;85.20;;;;;;5071533;28;20093;-75
2021/09/14 13:00:31;;;;;;;8.63;6.95;;;23.90;85.50;;;;;;5065294;28;20478;-75
2021/09/14 13:02:57;;;;;;;8.10;7.00;;;23.90;85.10;;;;;;5080167;28;20104;-74
2021/09/14 13:05:28;;;;;;;9.40;6.53;;;23.90;84.60;;;;;;5070471;28;20036;-74
2021/09/14 13:07:55;;;;;;;10.48;7.03;;;24.00;84.30;;;;;;5087520;28;20147;-74
2021/09/14 13:10:21;;;;;;;8.80;6.05;;;24.00;83.10;;;;;;5091082;27;20043;-75
2021/09/14 13:16:10;;;;;;;6.72;6.05;;;23.90;85.00;;;;;;5068236;28;20052;-75
2021/09/14 13:18:21;;;;;;;6.72;6.07;;;24.00;85.00;;;;;;5070897;28;20040;-75
2021/09/14 13:20:47;;;;;;;7.47;6.68;;;24.20;84.50;;;;;;5063506;27;20091;-75
2021/09/14 13:23:13;;;;;;;8.13;6.75;;;24.30;83.50;;;;;;5053483;28;20042;-75
2021/09/14 13:25:39;;;;;;;8.07;6.38;;;24.40;82.40;;;;;;5092024;28;20039;-75
2021/09/14 13:28:05;;;;;;;7.63;6.78;;;24.40;82.00;;;;;;5085467;27;20094;-75
2021/09/14 13:30:31;;;;;;;8.80;6.43;;;24.40;82.00;;;;;;5054868;28;20502;-75
2021/09/14 13:32:57;;;;;;;7.47;6.53;;;24.30;82.20;;;;;;5054399;28;20043;-75
2021/09/14 13:35:23;;;;;;;9.40;6.78;;;24.30;82.20;;;;;;5065909;28;20047;-75
2021/09/14 13:37:49;;;;;;;7.50;6.30;;;24.30;82.00;;;;;;5042155;28;20512;-75
2021/09/14 13:40:14;;;;;;;6.70;5.95;;;24.30;81.70;;;;;;5049740;28;20073;-75
2021/09/14 13:42:40;;;;;;;8.57;6.88;;;24.30;83.10;;;;;;5083208;28;20487;-76